Time;durP1;ratioP1;P1;durP2;ratioP2;P2;SDS_P1;SDS_P2;PMS_P1;PMS_P2;Temp;Humidity;BMP_temperature;BMP_pressure;BME280_temperature;BME280_humidity;BME280_pressure;Samples;Min_cycle;Max_cycle;Signal;HPM_P1;HPM_P2
2022/09/20 00:00:40;;;;;;;3.5;1.9;;;;;;;8.42;88.41504;95738.83;;;;
2022/09/20 00:01:42;;;;;;;3.5;1.9;;;;;;;8.42;88.41504;95738.83;;;;
2022/09/20 00:02:42;;;;;;;3.5;1.9;;;;;;;8.42;88.41504;95738.83;;;;
2022/09/20 00:03:43;;;;;;;3.5;1.9;;;;;;;8.42;88.41504;95738.83;;;;
2022/09/20 00:04:45;;;;;;;3.5;1.9;;;;;;;8.42;88.41504;95738.83;;;;
2022/09/20 00:05:47;;;;;;;3.5;1.9;;;;;;;8.42;88.41504;95738.83;;;;
2022/09/20 00:06:47;;;;;;;3.5;1.9;;;;;;;8.42;88.41504;95738.83;;;;
2022/09/20 00:07:48;;;;;;;3.5;1.9;;;;;;;8.42;88.41504;95738.83;;;;
2022/09/20 00:08:49;;;;;;;3.5;1.9;;;;;;;8.42;88.41504;95738.83;;;;
2022/09/20 00:09:49;;;;;;;3.6;1.9;;;;;;;8.31;88.85254;95729.21;;;;
2022/09/20 00:10:52;;;;;;;3.6;1.9;;;;;;;8.31;88.85254;95729.21;;;;
2022/09/20 00:11:57;;;;;;;3.6;1.9;;;;;;;8.31;88.85254;95729.21;;;;
2022/09/20 00:12:57;;;;;;;3.6;1.9;;;;;;;8.31;88.85254;95729.21;;;;
2022/09/20 00:13:58;;;;;;;3.6;1.9;;;;;;;8.31;88.85254;95729.21;;;;
2022/09/20 00:15:00;;;;;;;3.6;1.9;;;;;;;8.31;88.85254;95729.21;;;;
2022/09/20 00:16:01;;;;;;;3.6;1.9;;;;;;;8.31;88.85254;95729.21;;;;
2022/09/20 00:17:04;;;;;;;3.6;1.9;;;;;;;8.31;88.85254;95729.21;;;;
2022/09/20 00:18:05;;;;;;;3.6;1.9;;;;;;;8.31;88.85254;95729.21;;;;
2022/09/20 00:19:05;;;;;;;3.6;1.9;;;;;;;8.31;88.85254;95729.21;;;;
2022/09/20 00:20:08;;;;;;;3.6;1.9;;;;;;;8.31;88.85254;95729.21;;;;
2022/09/20 00:21:08;;;;;;;4.900001;2.25;;;;;;;8.3;88.9873;95734.63;;;;
2022/09/20 00:22:14;;;;;;;4.900001;2.25;;;;;;;8.3;88.9873;95734.63;;;;
2022/09/20 00:23:15;;;;;;;4.900001;2.25;;;;;;;8.3;88.9873;95734.63;;;;
2022/09/20 00:24:16;;;;;;;4.900001;2.25;;;;;;;8.3;88.9873;95734.63;;;;
2022/09/20 00:25:16;;;;;;;4.900001;2.25;;;;;;;8.3;88.9873;95734.63;;;;
2022/09/20 00:26:18;;;;;;;4.900001;2.25;;;;;;;8.3;88.9873;95734.63;;;;
2022/09/20 00:27:19;;;;;;;4.900001;2.25;;;;;;;8.3;88.9873;95734.63;;;;
2022/09/20 00:28:20;;;;;;;4.900001;2.25;;;;;;;8.3;88.9873;95734.63;;;;
2022/09/20 00:29:20;;;;;;;4.900001;2.25;;;;;;;8.3;88.9873;95734.63;;;;
2022/09/20 00:30:21;;;;;;;4.900001;2.25;;;;;;;8.3;88.9873;95734.63;;;;
2022/09/20 00:31:21;;;;;;;2.55;2.1;;;;;;;8.34;89.13379;95722.74;;;;
2022/09/20 00:32:22;;;;;;;2.55;2.1;;;;;;;8.34;89.13379;95722.74;;;;
2022/09/20 00:33:22;;;;;;;2.55;2.1;;;;;;;8.34;89.13379;95722.74;;;;
2022/09/20 00:35:26;;;;;;;2.55;2.1;;;;;;;8.34;89.13379;95722.74;;;;
2022/09/20 00:36:26;;;;;;;2.55;2.1;;;;;;;8.34;89.13379;95722.74;;;;
2022/09/20 00:37:27;;;;;;;2.55;2.1;;;;;;;8.34;89.13379;95722.74;;;;
2022/09/20 00:38:28;;;;;;;2.55;2.1;;;;;;;8.34;89.13379;95722.74;;;;
2022/09/20 00:39:28;;;;;;;2.55;2.1;;;;;;;8.34;89.13379;95722.74;;;;
2022/09/20 00:40:29;;;;;;;2.55;2.1;;;;;;;8.34;89.13379;95722.74;;;;
2022/09/20 00:41:30;;;;;;;2.55;2.1;;;;;;;8.34;89.13379;95722.74;;;;
2022/09/20 00:42:31;;;;;;;3.9;2.25;;;;;;;8.49;89.05762;95723.1;;;;
2022/09/20 00:43:32;;;;;;;3.9;2.25;;;;;;;8.49;89.05762;95723.1;;;;
2022/09/20 00:44:36;;;;;;;3.9;2.25;;;;;;;8.49;89.05762;95723.1;;;;
2022/09/20 00:45:42;;;;;;;3.9;2.25;;;;;;;8.49;89.05762;95723.1;;;;
2022/09/20 00:46:48;;;;;;;3.9;2.25;;;;;;;8.49;89.05762;95723.1;;;;
2022/09/20 00:47:48;;;;;;;3.9;2.25;;;;;;;8.49;89.05762;95723.1;;;;
2022/09/20 00:48:54;;;;;;;3.9;2.25;;;;;;;8.49;89.05762;95723.1;;;;
2022/09/20 00:50:00;;;;;;;3.9;2.25;;;;;;;8.49;89.05762;95723.1;;;;
2022/09/20 00:51:10;;;;;;;3.9;2.25;;;;;;;8.49;89.05762;95723.1;;;;
2022/09/20 00:52:14;;;;;;;3.9;2.25;;;;;;;8.49;89.05762;95723.1;;;;
2022/09/20 00:53:16;;;;;;;4.9;2.4;;;;;;;8.53;88.90723;95720.37;;;;
2022/09/20 00:54:20;;;;;;;4.9;2.4;;;;;;;8.53;88.90723;95720.37;;;;
2022/09/20 00:55:24;;;;;;;4.9;2.4;;;;;;;8.53;88.90723;95720.37;;;;
2022/09/20 00:56:26;;;;;;;4.9;2.4;;;;;;;8.53;88.90723;95720.37;;;;
2022/09/20 00:57:34;;;;;;;4.9;2.4;;;;;;;8.53;88.90723;95720.37;;;;
2022/09/20 00:58:35;;;;;;;4.9;2.4;;;;;;;8.53;88.90723;95720.37;;;;
2022/09/20 00:59:40;;;;;;;4.9;2.4;;;;;;;8.53;88.90723;95720.37;;;;
2022/09/20 01:00:46;;;;;;;4.9;2.4;;;;;;;8.53;88.90723;95720.37;;;;
2022/09/20 01:01:49;;;;;;;4.9;2.4;;;;;;;8.53;88.90723;95720.37;;;;
2022/09/20 01:02:52;;;;;;;4.9;2.4;;;;;;;8.53;88.90723;95720.37;;;;
2022/09/20 01:03:58;;;;;;;3.7;2.1;;;;;;;8.47;89.12891;95725.92;;;;
2022/09/20 01:04:59;;;;;;;3.7;2.1;;;;;;;8.47;89.12891;95725.92;;;;
2022/09/20 01:06:00;;;;;;;3.7;2.1;;;;;;;8.47;89.12891;95725.92;;;;
2022/09/20 01:07:06;;;;;;;3.7;2.1;;;;;;;8.47;89.12891;95725.92;;;;
2022/09/20 01:08:08;;;;;;;3.7;2.1;;;;;;;8.47;89.12891;95725.92;;;;
2022/09/20 01:09:10;;;;;;;3.7;2.1;;;;;;;8.47;89.12891;95725.92;;;;
2022/09/20 01:10:11;;;;;;;3.7;2.1;;;;;;;8.47;89.12891;95725.92;;;;
2022/09/20 01:11:11;;;;;;;3.7;2.1;;;;;;;8.47;89.12891;95725.92;;;;
2022/09/20 01:12:12;;;;;;;3.7;2.1;;;;;;;8.47;89.12891;95725.92;;;;
2022/09/20 01:13:16;;;;;;;3.7;2.1;;;;;;;8.47;89.12891;95725.92;;;;
2022/09/20 01:14:21;;;;;;;3.15;2.1;;;;;;;8.56;89.25391;95717.39;;;;
2022/09/20 01:15:23;;;;;;;3.15;2.1;;;;;;;8.56;89.25391;95717.39;;;;
2022/09/20 01:16:27;;;;;;;3.15;2.1;;;;;;;8.56;89.25391;95717.39;;;;
2022/09/20 01:17:29;;;;;;;3.15;2.1;;;;;;;8.56;89.25391;95717.39;;;;
2022/09/20 01:18:33;;;;;;;3.15;2.1;;;;;;;8.56;89.25391;95717.39;;;;
2022/09/20 01:19:36;;;;;;;3.15;2.1;;;;;;;8.56;89.25391;95717.39;;;;
2022/09/20 01:20:46;;;;;;;3.15;2.1;;;;;;;8.56;89.25391;95717.39;;;;
2022/09/20 01:21:47;;;;;;;3.15;2.1;;;;;;;8.56;89.25391;95717.39;;;;
2022/09/20 01:22:48;;;;;;;3.15;2.1;;;;;;;8.56;89.25391;95717.39;;;;
2022/09/20 01:24:02;;;;;;;3.15;2.1;;;;;;;8.56;89.25391;95717.39;;;;
2022/09/20 01:25:11;;;;;;;4.4;2.25;;;;;;;8.67;89.23438;95713.72;;;;
2022/09/20 01:26:16;;;;;;;4.4;2.25;;;;;;;8.67;89.23438;95713.72;;;;
2022/09/20 01:27:28;;;;;;;4.4;2.25;;;;;;;8.67;89.23438;95713.72;;;;
2022/09/20 01:28:41;;;;;;;4.4;2.25;;;;;;;8.67;89.23438;95713.72;;;;
2022/09/20 01:29:44;;;;;;;4.4;2.25;;;;;;;8.67;89.23438;95713.72;;;;
2022/09/20 01:31:01;;;;;;;4.4;2.25;;;;;;;8.67;89.23438;95713.72;;;;
2022/09/20 01:32:07;;;;;;;4.4;2.25;;;;;;;8.67;89.23438;95713.72;;;;
2022/09/20 01:33:12;;;;;;;4.4;2.25;;;;;;;8.67;89.23438;95713.72;;;;
2022/09/20 01:34:20;;;;;;;4.4;2.25;;;;;;;8.67;89.23438;95713.72;;;;
2022/09/20 01:35:27;;;;;;;5.2;2.1;;;;;;;8.8;89.1543;95714.77;;;;
2022/09/20 01:36:28;;;;;;;5.2;2.1;;;;;;;8.8;89.1543;95714.77;;;;
2022/09/20 01:37:37;;;;;;;5.2;2.1;;;;;;;8.8;89.1543;95714.77;;;;
2022/09/20 01:38:49;;;;;;;5.2;2.1;;;;;;;8.8;89.1543;95714.77;;;;
2022/09/20 01:39:59;;;;;;;5.2;2.1;;;;;;;8.8;89.1543;95714.77;;;;
2022/09/20 01:41:05;;;;;;;5.2;2.1;;;;;;;8.8;89.1543;95714.77;;;;
2022/09/20 01:42:11;;;;;;;5.2;2.1;;;;;;;8.8;89.1543;95714.77;;;;
2022/09/20 01:43:13;;;;;;;5.2;2.1;;;;;;;8.8;89.1543;95714.77;;;;
2022/09/20 01:44:22;;;;;;;5.2;2.1;;;;;;;8.8;89.1543;95714.77;;;;
2022/09/20 01:45:32;;;;;;;5.2;2.1;;;;;;;8.8;89.1543;95714.77;;;;
2022/09/20 01:46:32;;;;;;;2.9;2;;;;;;;8.88;89.07422;95704.47;;;;
2022/09/20 01:47:34;;;;;;;2.9;2;;;;;;;8.88;89.07422;95704.47;;;;
2022/09/20 01:48:43;;;;;;;2.9;2;;;;;;;8.88;89.07422;95704.47;;;;
2022/09/20 01:49:43;;;;;;;2.9;2;;;;;;;8.88;89.07422;95704.47;;;;
2022/09/20 01:50:54;;;;;;;2.9;2;;;;;;;8.88;89.07422;95704.47;;;;
2022/09/20 01:52:17;;;;;;;2.9;2;;;;;;;8.88;89.07422;95704.47;;;;
2022/09/20 01:53:37;;;;;;;2.9;2;;;;;;;8.88;89.07422;95704.47;;;;
2022/09/20 01:55:01;;;;;;;2.9;2;;;;;;;8.88;89.07422;95704.47;;;;
2022/09/20 01:56:53;;;;;;;2.35;2.15;;;;;;;8.76;88.92285;95697.69;;;;
2022/09/20 01:58:19;;;;;;;2.35;2.15;;;;;;;8.76;88.92285;95697.69;;;;
2022/09/20 01:59:50;;;;;;;2.35;2.15;;;;;;;8.76;88.92285;95697.69;;;;
2022/09/20 02:01:14;;;;;;;2.35;2.15;;;;;;;8.76;88.92285;95697.69;;;;
2022/09/20 02:02:37;;;;;;;2.35;2.15;;;;;;;8.76;88.92285;95697.69;;;;
2022/09/20 02:05:04;;;;;;;2.35;2.15;;;;;;;8.76;88.92285;95697.69;;;;
2022/09/20 02:06:29;;;;;;;2.35;2.15;;;;;;;8.76;88.92285;95697.69;;;;
2022/09/20 02:07:43;;;;;;;2.6;2.2;;;;;;;8.62;89.06543;95694.64;;;;
2022/09/20 02:09:02;;;;;;;2.6;2.2;;;;;;;8.62;89.06543;95694.64;;;;
2022/09/20 02:10:27;;;;;;;2.6;2.2;;;;;;;8.62;89.06543;95694.64;;;;
2022/09/20 02:12:09;;;;;;;2.6;2.2;;;;;;;8.62;89.06543;95694.64;;;;
2022/09/20 02:13:25;;;;;;;2.6;2.2;;;;;;;8.62;89.06543;95694.64;;;;
2022/09/20 02:14:29;;;;;;;2.6;2.2;;;;;;;8.62;89.06543;95694.64;;;;
2022/09/20 02:15:40;;;;;;;2.6;2.2;;;;;;;8.62;89.06543;95694.64;;;;
2022/09/20 02:17:06;;;;;;;2.6;2.2;;;;;;;8.62;89.06543;95694.64;;;;
2022/09/20 02:18:13;;;;;;;2.750001;2.4;;;;;;;8.5;89.25195;95682.56;;;;
2022/09/20 02:19:31;;;;;;;2.750001;2.4;;;;;;;8.5;89.25195;95682.56;;;;
2022/09/20 02:20:45;;;;;;;2.750001;2.4;;;;;;;8.5;89.25195;95682.56;;;;
2022/09/20 02:21:55;;;;;;;2.750001;2.4;;;;;;;8.5;89.25195;95682.56;;;;
2022/09/20 02:23:08;;;;;;;2.750001;2.4;;;;;;;8.5;89.25195;95682.56;;;;
2022/09/20 02:24:19;;;;;;;2.750001;2.4;;;;;;;8.5;89.25195;95682.56;;;;
2022/09/20 02:25:27;;;;;;;2.750001;2.4;;;;;;;8.5;89.25195;95682.56;;;;
2022/09/20 02:26:45;;;;;;;2.750001;2.4;;;;;;;8.5;89.25195;95682.56;;;;
2022/09/20 02:27:58;;;;;;;2.750001;2.4;;;;;;;8.5;89.25195;95682.56;;;;
2022/09/20 02:29:12;;;;;;;3;2.1;;;;;;;8.33;89.33398;95685.94;;;;
2022/09/20 02:30:26;;;;;;;3;2.1;;;;;;;8.33;89.33398;95685.94;;;;
2022/09/20 02:31:40;;;;;;;3;2.1;;;;;;;8.33;89.33398;95685.94;;;;
2022/09/20 02:32:59;;;;;;;3;2.1;;;;;;;8.33;89.33398;95685.94;;;;
2022/09/20 02:34:13;;;;;;;3;2.1;;;;;;;8.33;89.33398;95685.94;;;;
2022/09/20 02:35:31;;;;;;;3;2.1;;;;;;;8.33;89.33398;95685.94;;;;
2022/09/20 02:36:46;;;;;;;3;2.1;;;;;;;8.33;89.33398;95685.94;;;;
2022/09/20 02:37:58;;;;;;;3;2.1;;;;;;;8.33;89.33398;95685.94;;;;
2022/09/20 02:39:17;;;;;;;3.9;2.3;;;;;;;8.2;89.60547;95685.4;;;;
2022/09/20 02:40:22;;;;;;;3.9;2.3;;;;;;;8.2;89.60547;95685.4;;;;
2022/09/20 02:41:35;;;;;;;3.9;2.3;;;;;;;8.2;89.60547;95685.4;;;;
2022/09/20 02:42:50;;;;;;;3.9;2.3;;;;;;;8.2;89.60547;95685.4;;;;
2022/09/20 02:44:01;;;;;;;3.9;2.3;;;;;;;8.2;89.60547;95685.4;;;;
2022/09/20 02:45:11;;;;;;;3.9;2.3;;;;;;;8.2;89.60547;95685.4;;;;
2022/09/20 02:46:21;;;;;;;3.9;2.3;;;;;;;8.2;89.60547;95685.4;;;;
2022/09/20 02:47:27;;;;;;;3.9;2.3;;;;;;;8.2;89.60547;95685.4;;;;
2022/09/20 02:48:32;;;;;;;3.9;2.3;;;;;;;8.2;89.60547;95685.4;;;;
2022/09/20 02:49:38;;;;;;;3.9;2.3;;;;;;;8.2;89.60547;95685.4;;;;
2022/09/20 02:50:52;;;;;;;4.8;2.6;;;;;;;8.28;89.71875;95687.03;;;;
2022/09/20 02:52:01;;;;;;;4.8;2.6;;;;;;;8.28;89.71875;95687.03;;;;
2022/09/20 02:53:12;;;;;;;4.8;2.6;;;;;;;8.28;89.71875;95687.03;;;;
2022/09/20 02:54:29;;;;;;;4.8;2.6;;;;;;;8.28;89.71875;95687.03;;;;
2022/09/20 02:55:44;;;;;;;4.8;2.6;;;;;;;8.28;89.71875;95687.03;;;;
2022/09/20 02:56:54;;;;;;;4.8;2.6;;;;;;;8.28;89.71875;95687.03;;;;
2022/09/20 02:58:02;;;;;;;4.8;2.6;;;;;;;8.28;89.71875;95687.03;;;;
2022/09/20 02:59:18;;;;;;;4.8;2.6;;;;;;;8.28;89.71875;95687.03;;;;
2022/09/20 03:00:32;;;;;;;2.8;2.3;;;;;;;8.18;89.54883;95693.56;;;;
2022/09/20 03:01:41;;;;;;;2.8;2.3;;;;;;;8.18;89.54883;95693.56;;;;
2022/09/20 03:02:50;;;;;;;2.8;2.3;;;;;;;8.18;89.54883;95693.56;;;;
2022/09/20 03:04:05;;;;;;;2.8;2.3;;;;;;;8.18;89.54883;95693.56;;;;
2022/09/20 03:05:22;;;;;;;2.8;2.3;;;;;;;8.18;89.54883;95693.56;;;;
2022/09/20 03:06:28;;;;;;;2.8;2.3;;;;;;;8.18;89.54883;95693.56;;;;
2022/09/20 03:07:39;;;;;;;2.8;2.3;;;;;;;8.18;89.54883;95693.56;;;;
2022/09/20 03:08:52;;;;;;;2.8;2.3;;;;;;;8.18;89.54883;95693.56;;;;
2022/09/20 03:09:57;;;;;;;2.8;2.3;;;;;;;8.18;89.54883;95693.56;;;;
2022/09/20 03:11:11;;;;;;;5;2.65;;;;;;;8.15;89.7666;95694.36;;;;
2022/09/20 03:12:22;;;;;;;5;2.65;;;;;;;8.15;89.7666;95694.36;;;;
2022/09/20 03:13:34;;;;;;;5;2.65;;;;;;;8.15;89.7666;95694.36;;;;
2022/09/20 03:14:50;;;;;;;5;2.65;;;;;;;8.15;89.7666;95694.36;;;;
2022/09/20 03:16:03;;;;;;;5;2.65;;;;;;;8.15;89.7666;95694.36;;;;
2022/09/20 03:17:11;;;;;;;5;2.65;;;;;;;8.15;89.7666;95694.36;;;;
2022/09/20 03:18:22;;;;;;;5;2.65;;;;;;;8.15;89.7666;95694.36;;;;
2022/09/20 03:19:37;;;;;;;5;2.65;;;;;;;8.15;89.7666;95694.36;;;;
2022/09/20 03:20:49;;;;;;;5;2.65;;;;;;;8.15;89.7666;95694.36;;;;
2022/09/20 03:21:59;;;;;;;5.05;2.55;;;;;;;8.21;89.83301;95689.65;;;;
2022/09/20 03:23:13;;;;;;;5.05;2.55;;;;;;;8.21;89.83301;95689.65;;;;
2022/09/20 03:24:33;;;;;;;5.05;2.55;;;;;;;8.21;89.83301;95689.65;;;;
2022/09/20 03:25:43;;;;;;;5.05;2.55;;;;;;;8.21;89.83301;95689.65;;;;
2022/09/20 03:26:54;;;;;;;5.05;2.55;;;;;;;8.21;89.83301;95689.65;;;;
2022/09/20 03:28:03;;;;;;;5.05;2.55;;;;;;;8.21;89.83301;95689.65;;;;
2022/09/20 03:29:21;;;;;;;5.05;2.55;;;;;;;8.21;89.83301;95689.65;;;;
2022/09/20 03:30:40;;;;;;;5.05;2.55;;;;;;;8.21;89.83301;95689.65;;;;
2022/09/20 03:31:53;;;;;;;5.05;2.55;;;;;;;8.21;89.83301;95689.65;;;;
2022/09/20 03:33:09;;;;;;;4.4;2.7;;;;;;;8.24;89.83691;95686.67;;;;
2022/09/20 03:34:15;;;;;;;4.4;2.7;;;;;;;8.24;89.83691;95686.67;;;;
2022/09/20 03:35:29;;;;;;;4.4;2.7;;;;;;;8.24;89.83691;95686.67;;;;
2022/09/20 03:36:42;;;;;;;4.4;2.7;;;;;;;8.24;89.83691;95686.67;;;;
2022/09/20 03:37:57;;;;;;;4.4;2.7;;;;;;;8.24;89.83691;95686.67;;;;
2022/09/20 03:39:14;;;;;;;4.4;2.7;;;;;;;8.24;89.83691;95686.67;;;;
2022/09/20 03:40:30;;;;;;;4.4;2.7;;;;;;;8.24;89.83691;95686.67;;;;
2022/09/20 03:41:52;;;;;;;4.4;2.7;;;;;;;8.24;89.83691;95686.67;;;;
2022/09/20 03:43:10;;;;;;;3.05;2.65;;;;;;;8.31;89.91602;95687.15;;;;
2022/09/20 03:44:24;;;;;;;3.05;2.65;;;;;;;8.31;89.91602;95687.15;;;;
2022/09/20 03:45:42;;;;;;;3.05;2.65;;;;;;;8.31;89.91602;95687.15;;;;
2022/09/20 03:46:55;;;;;;;3.05;2.65;;;;;;;8.31;89.91602;95687.15;;;;
2022/09/20 03:48:09;;;;;;;3.05;2.65;;;;;;;8.31;89.91602;95687.15;;;;
2022/09/20 03:49:29;;;;;;;3.05;2.65;;;;;;;8.31;89.91602;95687.15;;;;
2022/09/20 03:50:47;;;;;;;3.05;2.65;;;;;;;8.31;89.91602;95687.15;;;;
2022/09/20 03:52:02;;;;;;;3.05;2.65;;;;;;;8.31;89.91602;95687.15;;;;
2022/09/20 03:53:15;;;;;;;3.05;2.65;;;;;;;8.31;89.91602;95687.15;;;;
2022/09/20 03:54:33;;;;;;;4.150001;2.6;;;;;;;8.37;89.8877;95693.8;;;;
2022/09/20 03:55:53;;;;;;;4.150001;2.6;;;;;;;8.37;89.8877;95693.8;;;;
2022/09/20 03:57:14;;;;;;;4.150001;2.6;;;;;;;8.37;89.8877;95693.8;;;;
2022/09/20 03:58:28;;;;;;;4.150001;2.6;;;;;;;8.37;89.8877;95693.8;;;;
2022/09/20 03:59:42;;;;;;;4.150001;2.6;;;;;;;8.37;89.8877;95693.8;;;;
2022/09/20 04:00:59;;;;;;;4.150001;2.6;;;;;;;8.37;89.8877;95693.8;;;;
2022/09/20 04:02:20;;;;;;;4.150001;2.6;;;;;;;8.37;89.8877;95693.8;;;;
2022/09/20 04:03:35;;;;;;;4.150001;2.6;;;;;;;8.37;89.8877;95693.8;;;;
2022/09/20 04:04:49;;;;;;;3.25;2.45;;;;;;;8.33;89.80469;95685.04;;;;
2022/09/20 04:05:54;;;;;;;3.25;2.45;;;;;;;8.33;89.80469;95685.04;;;;
2022/09/20 04:07:18;;;;;;;3.25;2.45;;;;;;;8.33;89.80469;95685.04;;;;
2022/09/20 04:08:24;;;;;;;3.25;2.45;;;;;;;8.33;89.80469;95685.04;;;;
2022/09/20 04:09:47;;;;;;;3.25;2.45;;;;;;;8.33;89.80469;95685.04;;;;
2022/09/20 04:11:08;;;;;;;3.25;2.45;;;;;;;8.33;89.80469;95685.04;;;;
2022/09/20 04:12:19;;;;;;;3.25;2.45;;;;;;;8.33;89.80469;95685.04;;;;
2022/09/20 04:13:28;;;;;;;3.25;2.45;;;;;;;8.33;89.80469;95685.04;;;;
2022/09/20 04:14:34;;;;;;;3.25;2.45;;;;;;;8.33;89.80469;95685.04;;;;
2022/09/20 04:15:42;;;;;;;3.1;2.7;;;;;;;8.25;89.80859;95694.48;;;;
2022/09/20 04:16:50;;;;;;;3.1;2.7;;;;;;;8.25;89.80859;95694.48;;;;
2022/09/20 04:17:59;;;;;;;3.1;2.7;;;;;;;8.25;89.80859;95694.48;;;;
2022/09/20 04:19:07;;;;;;;3.1;2.7;;;;;;;8.25;89.80859;95694.48;;;;
2022/09/20 04:20:13;;;;;;;3.1;2.7;;;;;;;8.25;89.80859;95694.48;;;;
2022/09/20 04:21:19;;;;;;;3.1;2.7;;;;;;;8.25;89.80859;95694.48;;;;
2022/09/20 04:22:28;;;;;;;3.1;2.7;;;;;;;8.25;89.80859;95694.48;;;;
2022/09/20 04:23:29;;;;;;;3.1;2.7;;;;;;;8.25;89.80859;95694.48;;;;
2022/09/20 04:24:39;;;;;;;3.1;2.7;;;;;;;8.25;89.80859;95694.48;;;;
2022/09/20 04:25:48;;;;;;;3.1;2.7;;;;;;;8.25;89.80859;95694.48;;;;
2022/09/20 04:26:50;;;;;;;3.200001;2.45;;;;;;;8.07;89.71875;95703.69;;;;
2022/09/20 04:27:57;;;;;;;3.200001;2.45;;;;;;;8.07;89.71875;95703.69;;;;
2022/09/20 04:29:11;;;;;;;3.200001;2.45;;;;;;;8.07;89.71875;95703.69;;;;
2022/09/20 04:30:29;;;;;;;3.200001;2.45;;;;;;;8.07;89.71875;95703.69;;;;
2022/09/20 04:31:38;;;;;;;3.200001;2.45;;;;;;;8.07;89.71875;95703.69;;;;
2022/09/20 04:32:44;;;;;;;3.200001;2.45;;;;;;;8.07;89.71875;95703.69;;;;
2022/09/20 04:33:51;;;;;;;3.200001;2.45;;;;;;;8.07;89.71875;95703.69;;;;
2022/09/20 04:40:31;;;;;;;3.8;2.55;;;;;;;7.94;89.80859;95706.59;;;;
2022/09/20 04:41:58;;;;;;;3.8;2.55;;;;;;;7.94;89.80859;95706.59;;;;
2022/09/20 04:44:20;;;;;;;3.8;2.55;;;;;;;7.94;89.80859;95706.59;;;;
2022/09/20 04:49:44;;;;;;;4.3;2.55;;;;;;;7.84;89.88379;95707.78;;;;
2022/09/20 04:54:06;;;;;;;4.3;2.55;;;;;;;7.84;89.88379;95707.78;;;;
2022/09/20 04:55:46;;;;;;;4.3;2.55;;;;;;;7.84;89.88379;95707.78;;;;
2022/09/20 04:56:51;;;;;;;4.3;2.55;;;;;;;7.84;89.88379;95707.78;;;;
2022/09/20 04:58:15;;;;;;;7.849999;3.05;;;;;;;7.85;89.99219;95714.67;;;;
2022/09/20 04:59:35;;;;;;;7.849999;3.05;;;;;;;7.85;89.99219;95714.67;;;;
2022/09/20 05:00:53;;;;;;;7.849999;3.05;;;;;;;7.85;89.99219;95714.67;;;;
2022/09/20 05:02:25;;;;;;;7.849999;3.05;;;;;;;7.85;89.99219;95714.67;;;;
2022/09/20 05:04:02;;;;;;;7.849999;3.05;;;;;;;7.85;89.99219;95714.67;;;;
2022/09/20 05:05:26;;;;;;;7.849999;3.05;;;;;;;7.85;89.99219;95714.67;;;;
2022/09/20 05:06:56;;;;;;;7.849999;3.05;;;;;;;7.85;89.99219;95714.67;;;;
2022/09/20 05:08:21;;;;;;;7.849999;3.05;;;;;;;7.85;89.99219;95714.67;;;;
2022/09/20 05:09:47;;;;;;;4.55;3;;;;;;;7.96;89.97266;95719.56;;;;
2022/09/20 05:11:05;;;;;;;4.55;3;;;;;;;7.96;89.97266;95719.56;;;;
2022/09/20 05:16:23;;;;;;;4.55;3;;;;;;;7.96;89.97266;95719.56;;;;
2022/09/20 05:17:37;;;;;;;4.55;3;;;;;;;7.96;89.97266;95719.56;;;;
2022/09/20 05:18:50;;;;;;;4.55;3;;;;;;;7.96;89.97266;95719.56;;;;
2022/09/20 05:20:10;;;;;;;6.7;3.05;;;;;;;8.03;89.65625;95718.2;;;;
2022/09/20 05:21:41;;;;;;;6.7;3.05;;;;;;;8.03;89.65625;95718.2;;;;
2022/09/20 05:22:51;;;;;;;6.7;3.05;;;;;;;8.03;89.65625;95718.2;;;;
2022/09/20 05:24:07;;;;;;;6.7;3.05;;;;;;;8.03;89.65625;95718.2;;;;
2022/09/20 05:25:24;;;;;;;6.7;3.05;;;;;;;8.03;89.65625;95718.2;;;;
2022/09/20 05:26:42;;;;;;;6.7;3.05;;;;;;;8.03;89.65625;95718.2;;;;
2022/09/20 05:27:57;;;;;;;6.7;3.05;;;;;;;8.03;89.65625;95718.2;;;;
2022/09/20 05:29:08;;;;;;;6.7;3.05;;;;;;;8.03;89.65625;95718.2;;;;
2022/09/20 05:30:17;;;;;;;6.7;3.05;;;;;;;8.03;89.65625;95718.2;;;;
2022/09/20 05:31:27;;;;;;;6.7;3.05;;;;;;;8.03;89.65625;95718.2;;;;
2022/09/20 05:32:36;;;;;;;6.7;3.05;;;;;;;8.03;89.65625;95718.2;;;;
2022/09/20 05:33:45;;;;;;;6.7;3.05;;;;;;;8.03;89.65625;95718.2;;;;
2022/09/20 05:34:52;;;;;;;6.7;3.05;;;;;;;8.03;89.65625;95718.2;;;;
2022/09/20 05:36:01;;;;;;;6.7;3.05;;;;;;;8.03;89.65625;95718.2;;;;
2022/09/20 05:37:09;;;;;;;6.7;3.05;;;;;;;8.03;89.65625;95718.2;;;;
2022/09/20 05:38:22;;;;;;;6.7;3.05;;;;;;;8.03;89.65625;95718.2;;;;
2022/09/20 05:39:33;;;;;;;6.7;3.05;;;;;;;8.03;89.65625;95718.2;;;;
2022/09/20 05:40:39;;;;;;;4.25;2.95;;;;;;;8.22;89.61133;95740.81;;;;
2022/09/20 05:42:02;;;;;;;4.25;2.95;;;;;;;8.22;89.61133;95740.81;;;;
2022/09/20 05:43:14;;;;;;;4.25;2.95;;;;;;;8.22;89.61133;95740.81;;;;
2022/09/20 05:44:23;;;;;;;4.25;2.95;;;;;;;8.22;89.61133;95740.81;;;;
2022/09/20 05:45:37;;;;;;;4.25;2.95;;;;;;;8.22;89.61133;95740.81;;;;
2022/09/20 05:46:49;;;;;;;4.25;2.95;;;;;;;8.22;89.61133;95740.81;;;;
2022/09/20 05:48:00;;;;;;;4.25;2.95;;;;;;;8.22;89.61133;95740.81;;;;
2022/09/20 05:49:11;;;;;;;4.25;2.95;;;;;;;8.22;89.61133;95740.81;;;;
2022/09/20 05:50:25;;;;;;;4.25;2.95;;;;;;;8.22;89.61133;95740.81;;;;
2022/09/20 05:51:38;;;;;;;4;3.15;;;;;;;8.51;89.46875;95735.06;;;;
2022/09/20 05:52:57;;;;;;;4;3.15;;;;;;;8.51;89.46875;95735.06;;;;
2022/09/20 05:54:08;;;;;;;4;3.15;;;;;;;8.51;89.46875;95735.06;;;;
2022/09/20 05:55:57;;;;;;;4;3.15;;;;;;;8.51;89.46875;95735.06;;;;
2022/09/20 05:57:09;;;;;;;4;3.15;;;;;;;8.51;89.46875;95735.06;;;;
2022/09/20 05:58:22;;;;;;;4;3.15;;;;;;;8.51;89.46875;95735.06;;;;
2022/09/20 05:59:38;;;;;;;4;3.15;;;;;;;8.51;89.46875;95735.06;;;;
2022/09/20 06:00:52;;;;;;;4;3.15;;;;;;;8.51;89.46875;95735.06;;;;
2022/09/20 06:01:59;;;;;;;4;3.15;;;;;;;8.51;89.46875;95735.06;;;;
2022/09/20 06:03:39;;;;;;;4;3.15;;;;;;;8.51;89.46875;95735.06;;;;
2022/09/20 06:04:43;;;;;;;4;3.15;;;;;;;8.51;89.46875;95735.06;;;;
2022/09/20 06:05:51;;;;;;;4;3.15;;;;;;;8.51;89.46875;95735.06;;;;
2022/09/20 06:07:01;;;;;;;4;3.15;;;;;;;8.51;89.46875;95735.06;;;;
2022/09/20 06:08:11;;;;;;;4;3.15;;;;;;;8.51;89.46875;95735.06;;;;
2022/09/20 06:09:25;;;;;;;4;3.15;;;;;;;8.51;89.46875;95735.06;;;;
2022/09/20 06:10:46;;;;;;;4;3.15;;;;;;;8.51;89.46875;95735.06;;;;
2022/09/20 06:11:59;;;;;;;4;3.15;;;;;;;8.51;89.46875;95735.06;;;;
2022/09/20 06:13:14;;;;;;;4.699999;2.65;;;;;;;9.01;89.19727;95761.38;;;;
2022/09/20 06:14:31;;;;;;;4.699999;2.65;;;;;;;9.01;89.19727;95761.38;;;;
2022/09/20 06:15:43;;;;;;;4.699999;2.65;;;;;;;9.01;89.19727;95761.38;;;;
2022/09/20 06:16:49;;;;;;;4.699999;2.65;;;;;;;9.01;89.19727;95761.38;;;;
2022/09/20 06:18:01;;;;;;;4.699999;2.65;;;;;;;9.01;89.19727;95761.38;;;;
2022/09/20 06:19:21;;;;;;;4.699999;2.65;;;;;;;9.01;89.19727;95761.38;;;;
2022/09/20 06:20:32;;;;;;;4.699999;2.65;;;;;;;9.01;89.19727;95761.38;;;;
2022/09/20 06:21:41;;;;;;;4.699999;2.65;;;;;;;9.01;89.19727;95761.38;;;;
2022/09/20 06:22:50;;;;;;;4.699999;2.65;;;;;;;9.01;89.19727;95761.38;;;;
2022/09/20 06:23:53;;;;;;;5.849999;2.900001;;;;;;;9.28;89.13477;95760.97;;;;
2022/09/20 06:24:59;;;;;;;5.849999;2.900001;;;;;;;9.28;89.13477;95760.97;;;;
2022/09/20 06:26:06;;;;;;;5.849999;2.900001;;;;;;;9.28;89.13477;95760.97;;;;
2022/09/20 06:27:13;;;;;;;5.849999;2.900001;;;;;;;9.28;89.13477;95760.97;;;;
2022/09/20 06:28:17;;;;;;;5.849999;2.900001;;;;;;;9.28;89.13477;95760.97;;;;
2022/09/20 06:29:20;;;;;;;5.849999;2.900001;;;;;;;9.28;89.13477;95760.97;;;;
2022/09/20 06:30:28;;;;;;;5.849999;2.900001;;;;;;;9.28;89.13477;95760.97;;;;
2022/09/20 06:31:36;;;;;;;5.849999;2.900001;;;;;;;9.28;89.13477;95760.97;;;;
2022/09/20 06:32:39;;;;;;;5.849999;2.900001;;;;;;;9.28;89.13477;95760.97;;;;
2022/09/20 06:33:52;;;;;;;6.250001;2.8;;;;;;;9.4;88.9873;95753.77;;;;
2022/09/20 06:34:57;;;;;;;6.250001;2.8;;;;;;;9.4;88.9873;95753.77;;;;
2022/09/20 06:41:25;;;;;;;6.250001;2.8;;;;;;;9.4;88.9873;95753.77;;;;
2022/09/20 06:42:28;;;;;;;6.250001;2.8;;;;;;;9.4;88.9873;95753.77;;;;
2022/09/20 06:43:29;;;;;;;6.250001;2.8;;;;;;;9.4;88.9873;95753.77;;;;
2022/09/20 06:44:30;;;;;;;6.250001;2.8;;;;;;;9.4;88.9873;95753.77;;;;
2022/09/20 06:45:30;;;;;;;4.9;2.55;;;;;;;9.53;88.94043;95759.92;;;;
2022/09/20 06:46:31;;;;;;;4.9;2.55;;;;;;;9.53;88.94043;95759.92;;;;
2022/09/20 06:47:34;;;;;;;4.9;2.55;;;;;;;9.53;88.94043;95759.92;;;;
2022/09/20 06:48:38;;;;;;;4.9;2.55;;;;;;;9.53;88.94043;95759.92;;;;
2022/09/20 06:49:41;;;;;;;4.9;2.55;;;;;;;9.53;88.94043;95759.92;;;;
2022/09/20 06:50:44;;;;;;;4.9;2.55;;;;;;;9.53;88.94043;95759.92;;;;
2022/09/20 06:51:44;;;;;;;4.9;2.55;;;;;;;9.53;88.94043;95759.92;;;;
2022/09/20 06:52:46;;;;;;;4.9;2.55;;;;;;;9.53;88.94043;95759.92;;;;
2022/09/20 06:53:46;;;;;;;4.9;2.55;;;;;;;9.53;88.94043;95759.92;;;;
2022/09/20 06:54:48;;;;;;;4.9;2.55;;;;;;;9.53;88.94043;95759.92;;;;
2022/09/20 06:55:51;;;;;;;5.55;2.9;;;;;;;9.75;88.89941;95772.05;;;;
2022/09/20 06:56:52;;;;;;;5.55;2.9;;;;;;;9.75;88.89941;95772.05;;;;
2022/09/20 06:57:53;;;;;;;5.55;2.9;;;;;;;9.75;88.89941;95772.05;;;;
2022/09/20 06:58:53;;;;;;;5.55;2.9;;;;;;;9.75;88.89941;95772.05;;;;
2022/09/20 06:59:54;;;;;;;5.55;2.9;;;;;;;9.75;88.89941;95772.05;;;;
2022/09/20 07:00:55;;;;;;;5.55;2.9;;;;;;;9.75;88.89941;95772.05;;;;
2022/09/20 07:01:55;;;;;;;5.55;2.9;;;;;;;9.75;88.89941;95772.05;;;;
2022/09/20 07:02:56;;;;;;;5.55;2.9;;;;;;;9.75;88.89941;95772.05;;;;
2022/09/20 07:03:57;;;;;;;5.55;2.9;;;;;;;9.75;88.89941;95772.05;;;;
2022/09/20 07:04:58;;;;;;;5.55;2.9;;;;;;;9.75;88.89941;95772.05;;;;
2022/09/20 07:05:59;;;;;;;6.35;2.9;;;;;;;9.9;88.79102;95767.07;;;;
2022/09/20 07:07:00;;;;;;;6.35;2.9;;;;;;;9.9;88.79102;95767.07;;;;
2022/09/20 07:08:01;;;;;;;6.35;2.9;;;;;;;9.9;88.79102;95767.07;;;;
2022/09/20 07:09:01;;;;;;;6.35;2.9;;;;;;;9.9;88.79102;95767.07;;;;
2022/09/20 07:10:03;;;;;;;6.35;2.9;;;;;;;9.9;88.79102;95767.07;;;;
2022/09/20 07:11:04;;;;;;;6.35;2.9;;;;;;;9.9;88.79102;95767.07;;;;
2022/09/20 07:12:10;;;;;;;6.35;2.9;;;;;;;9.9;88.79102;95767.07;;;;